Time;durP1;ratioP1;P1;durP2;ratioP2;P2;SDS_P1;SDS_P2;PMS_P1;PMS_P2;Temp;Humidity;BMP_temperature;BMP_pressure;BME280_temperature;BME280_humidity;BME280_pressure;Samples;Min_cycle;Max_cycle;Signal;HPM_P1;HPM_P2
2023/07/16 00:02:02;;;;;;;7.38;2.67;;;;;;;20.53;100.00;100168.63;5008380;28;20132;-61
2023/07/16 00:04:30;;;;;;;5.43;2.70;;;;;;;20.54;100.00;100174.88;5007774;28;20121;-61
2023/07/16 00:06:57;;;;;;;4.80;2.50;;;;;;;20.50;100.00;100176.44;5008623;28;20050;-62
2023/07/16 00:09:23;;;;;;;6.20;2.92;;;;;;;20.41;100.00;100168.63;5008733;28;20053;-61
2023/07/16 00:11:50;;;;;;;4.75;2.67;;;;;;;20.34;100.00;100162.44;5009109;28;20049;-62
2023/07/16 00:14:17;;;;;;;5.78;2.50;;;;;;;20.37;100.00;100159.25;5009292;28;20179;-60
2023/07/16 00:16:43;;;;;;;6.25;2.65;;;;;;;20.35;100.00;100169.56;5009195;28;20066;-60
2023/07/16 00:19:11;;;;;;;4.55;2.50;;;;;;;20.34;100.00;100165.16;5008737;28;20421;-61
2023/07/16 00:21:38;;;;;;;4.97;2.67;;;;;;;20.33;100.00;100158.06;5008069;28;20105;-62
2023/07/16 00:24:05;;;;;;;5.75;2.80;;;;;;;20.30;100.00;100163.97;5008755;28;20550;-61
2023/07/16 00:26:31;;;;;;;11.88;3.40;;;;;;;20.32;100.00;100180.94;5008160;28;20069;-63
2023/07/16 00:28:58;;;;;;;6.00;2.42;;;;;;;20.33;100.00;100177.13;5009564;28;20513;-61
2023/07/16 00:31:24;;;;;;;7.45;2.53;;;;;;;20.38;100.00;100182.69;5021173;28;20111;-61
2023/07/16 00:33:51;;;;;;;8.50;3.00;;;;;;;20.39;100.00;100180.81;5028132;28;20049;-62
2023/07/16 00:36:17;;;;;;;7.20;2.60;;;;;;;20.41;100.00;100186.88;5028597;28;20045;-61
2023/07/16 00:38:45;;;;;;;4.30;2.50;;;;;;;20.37;100.00;100186.47;5028495;28;20047;-61
2023/07/16 00:41:15;;;;;;;3.22;2.65;;;;;;;20.33;100.00;100198.94;5029194;28;20133;-61
2023/07/16 00:43:42;;;;;;;3.97;2.47;;;;;;;20.30;100.00;100210.28;5027738;28;20104;-61
2023/07/16 00:46:10;;;;;;;7.25;3.10;;;;;;;20.25;100.00;100215.63;5027606;28;20052;-62
2023/07/16 00:48:37;;;;;;;4.30;2.92;;;;;;;20.19;100.00;100230.19;5026199;28;20065;-61
2023/07/16 00:51:04;;;;;;;4.53;3.20;;;;;;;20.10;100.00;100250.66;5027966;28;20051;-61
2023/07/16 00:53:31;;;;;;;5.93;2.60;;;;;;;20.09;100.00;100276.25;5025464;28;20429;-61
2023/07/16 00:55:58;;;;;;;5.55;2.78;;;;;;;20.14;100.00;100284.53;5028755;28;20127;-61
2023/07/16 00:58:26;;;;;;;7.40;3.30;;;;;;;20.12;100.00;100283.94;5024414;28;20051;-62
2023/07/16 01:00:53;;;;;;;4.85;3.00;;;;;;;20.14;100.00;100292.69;5032700;28;20045;-62
2023/07/16 01:03:20;;;;;;;10.82;3.40;;;;;;;20.11;100.00;100304.06;5027632;28;20042;-61
2023/07/16 01:09:41;;;;;;;5.15;3.33;;;;;;;19.99;100.00;100369.38;5027762;28;20056;-62
2023/07/16 01:12:09;;;;;;;6.13;3.42;;;;;;;19.84;100.00;100377.97;5027211;28;20053;-63
2023/07/16 01:14:38;;;;;;;4.75;3.50;;;;;;;19.72;100.00;100396.94;5026778;28;20453;-61
2023/07/16 01:17:06;;;;;;;6.30;3.50;;;;;;;19.63;100.00;100420.06;5027450;28;20152;-63
2023/07/16 01:19:34;;;;;;;6.72;3.33;;;;;;;19.55;100.00;100436.69;5026437;28;20489;-61
2023/07/16 01:22:07;;;;;;;7.13;3.70;;;;;;;19.42;100.00;100450.47;5026954;28;20099;-62
2023/07/16 01:24:56;;;;;;;8.55;4.22;;;;;;;19.34;100.00;100456.16;5024878;28;20111;-61
2023/07/16 01:27:35;;;;;;;6.68;3.50;;;;;;;19.26;100.00;100470.91;5023353;28;20473;-62
2023/07/16 01:30:09;;;;;;;4.72;3.63;;;;;;;19.15;100.00;100471.63;5025607;28;20057;-62
2023/07/16 01:32:37;;;;;;;9.35;3.80;;;;;;;19.12;100.00;100472.91;5004701;28;20049;-61
2023/07/16 01:35:06;;;;;;;7.53;3.97;;;;;;;19.16;100.00;100478.72;5007922;28;20046;-61
2023/07/16 01:37:33;;;;;;;16.60;4.38;;;;;;;19.18;100.00;100484.78;5010811;28;20052;-61
2023/07/16 01:40:00;;;;;;;6.78;4.10;;;;;;;19.12;100.00;100474.78;5009654;28;20053;-61
2023/07/16 01:42:27;;;;;;;8.93;4.00;;;;;;;19.13;100.00;100468.28;5007743;28;20129;-62
2023/07/16 01:44:53;;;;;;;8.27;3.83;;;;;;;19.14;100.00;100456.34;5008648;28;20054;-60
2023/07/16 01:47:28;;;;;;;8.60;4.32;;;;;;;19.11;100.00;100465.81;5008755;28;20080;-61
2023/07/16 01:49:56;;;;;;;7.43;4.13;;;;;;;19.16;100.00;100456.97;5007635;28;20046;-61
2023/07/16 01:52:22;;;;;;;5.13;2.67;;;;;;;19.19;100.00;100472.84;5009235;28;20046;-59
2023/07/16 01:54:49;;;;;;;4.78;3.40;;;;;;;19.34;100.00;100473.31;5009565;28;20085;-59
2023/07/16 01:57:15;;;;;;;5.70;3.33;;;;;;;19.47;100.00;100492.22;5012734;28;20069;-59
2023/07/16 01:59:42;;;;;;;8.55;3.53;;;;;;;19.57;100.00;100480.00;5013155;28;20104;-59
2023/07/16 02:02:08;;;;;;;8.40;2.63;;;;;;;19.58;100.00;100484.38;5013190;28;20120;-60
2023/07/16 02:04:35;;;;;;;6.47;2.88;;;;;;;19.57;100.00;100474.56;5012884;28;20508;-60
2023/07/16 02:07:01;;;;;;;3.78;2.75;;;;;;;19.67;100.00;100480.31;5012808;28;20516;-60
2023/07/16 02:09:28;;;;;;;6.95;2.90;;;;;;;19.83;100.00;100460.69;5012945;28;20077;-60
2023/07/16 02:11:55;;;;;;;4.22;2.70;;;;;;;19.88;100.00;100455.38;5011960;28;20086;-59
2023/07/16 02:14:22;;;;;;;6.15;2.70;;;;;;;19.94;100.00;100450.94;5013080;28;20459;-60
2023/07/16 02:16:48;;;;;;;6.38;2.70;;;;;;;19.93;100.00;100452.81;5011458;28;20498;-60
2023/07/16 02:19:15;;;;;;;4.50;2.70;;;;;;;19.95;100.00;100467.03;5012418;28;20056;-60
2023/07/16 02:21:42;;;;;;;6.43;3.15;;;;;;;19.92;100.00;100462.03;5012326;28;20046;-60
2023/07/16 02:24:08;;;;;;;6.53;2.70;;;;;;;19.70;100.00;100460.84;5011988;28;20065;-60
2023/07/16 02:26:35;;;;;;;7.50;3.00;;;;;;;19.61;100.00;100465.72;5012297;28;20127;-60
2023/07/16 02:29:01;;;;;;;6.85;3.15;;;;;;;19.37;100.00;100481.03;5012581;28;20758;-60
2023/07/16 02:31:28;;;;;;;6.97;3.20;;;;;;;19.20;100.00;100458.19;5024277;28;20045;-59
2023/07/16 02:33:54;;;;;;;7.68;3.17;;;;;;;18.99;100.00;100457.53;5032639;28;20419;-59
2023/07/16 02:36:21;;;;;;;8.13;3.08;;;;;;;18.93;100.00;100453.00;5032635;28;20137;-59
2023/07/16 02:38:47;;;;;;;10.02;3.70;;;;;;;18.77;100.00;100440.75;5032188;28;20060;-59
2023/07/16 02:41:14;;;;;;;5.72;3.30;;;;;;;18.69;100.00;100448.38;5031952;28;20055;-59
2023/07/16 02:43:40;;;;;;;6.38;2.88;;;;;;;18.65;100.00;100457.97;5031800;28;20103;-60
2023/07/16 02:46:07;;;;;;;5.57;3.08;;;;;;;18.49;100.00;100460.19;5032193;28;20084;-60
2023/07/16 02:48:33;;;;;;;4.43;3.00;;;;;;;18.25;100.00;100461.78;5032150;28;20046;-59
2023/07/16 02:51:00;;;;;;;3.92;2.97;;;;;;;18.09;100.00;100476.66;5031820;28;20064;-60
2023/07/16 02:53:26;;;;;;;6.60;3.88;;;;;;;18.02;100.00;100465.00;5032042;28;20042;-59
2023/07/16 02:55:53;;;;;;;5.40;4.07;;;;;;;17.94;100.00;100459.81;5032550;28;20505;-59
2023/07/16 02:58:19;;;;;;;6.80;3.88;;;;;;;17.94;100.00;100465.25;5032184;28;20041;-60
2023/07/16 03:00:46;;;;;;;7.15;3.97;;;;;;;17.96;100.00;100465.88;5031235;28;20049;-59
2023/07/16 03:03:12;;;;;;;5.50;3.38;;;;;;;17.87;100.00;100479.91;5031149;28;20053;-59
2023/07/16 03:05:39;;;;;;;4.63;3.83;;;;;;;17.74;100.00;100472.63;5030374;28;20052;-60
2023/07/16 03:08:06;;;;;;;7.03;4.18;;;;;;;17.76;100.00;100462.41;5031246;28;20087;-59
2023/07/16 03:10:32;;;;;;;8.45;3.88;;;;;;;17.50;100.00;100452.47;5030769;28;20065;-60
2023/07/16 03:12:59;;;;;;;7.10;4.00;;;;;;;17.42;100.00;100448.09;5031352;28;20049;-59
2023/07/16 03:15:25;;;;;;;5.22;3.92;;;;;;;17.34;100.00;100445.63;5031365;28;20042;-59
2023/07/16 03:17:52;;;;;;;5.65;3.35;;;;;;;17.39;100.00;100434.13;5031200;28;20095;-59
2023/07/16 03:20:19;;;;;;;4.25;3.25;;;;;;;17.38;100.00;100430.59;5030657;28;20049;-59
2023/07/16 03:22:45;;;;;;;7.60;3.35;;;;;;;17.33;100.00;100435.78;5030736;28;20041;-59
2023/07/16 03:25:12;;;;;;;8.07;3.58;;;;;;;17.18;100.00;100413.50;5030440;28;20409;-59
2023/07/16 03:27:38;;;;;;;5.47;3.30;;;;;;;17.13;100.00;100417.69;5030619;28;20386;-59
2023/07/16 03:30:05;;;;;;;5.10;3.30;;;;;;;17.18;100.00;100438.72;5029935;28;20497;-59
2023/07/16 03:32:32;;;;;;;5.18;2.92;;;;;;;17.23;100.00;100440.78;5010785;28;20133;-59
2023/07/16 03:35:18;;;;;;;4.25;2.50;;;;;;;17.25;100.00;100455.81;5010650;28;20042;-59
2023/07/16 03:37:44;;;;;;;7.00;3.45;;;;;;;17.31;100.00;100448.72;5010903;28;20058;-59
2023/07/16 03:40:15;;;;;;;4.15;3.20;;;;;;;17.29;100.00;100407.41;5010570;28;20049;-59
2023/07/16 03:42:43;;;;;;;3.85;3.00;;;;;;;17.19;100.00;100402.44;5010376;28;20128;-59
2023/07/16 03:45:10;;;;;;;4.90;2.88;;;;;;;17.27;100.00;100428.50;5011391;28;20060;-58
2023/07/16 03:47:37;;;;;;;6.68;3.25;;;;;;;17.15;100.00;100428.31;5011166;28;20050;-59
2023/07/16 03:50:04;;;;;;;7.45;3.03;;;;;;;17.14;100.00;100432.91;5011475;28;20485;-59
2023/07/16 03:52:30;;;;;;;6.03;2.97;;;;;;;17.16;100.00;100435.38;5010542;28;20073;-59
2023/07/16 03:54:57;;;;;;;3.88;2.97;;;;;;;17.22;100.00;100425.59;5011152;28;20112;-60
2023/07/16 03:57:24;;;;;;;4.45;2.83;;;;;;;17.25;100.00;100434.13;5011534;28;20104;-59
2023/07/16 03:59:50;;;;;;;2.92;2.30;;;;;;;17.31;100.00;100440.59;5011205;28;20051;-60
2023/07/16 04:02:17;;;;;;;3.97;2.30;;;;;;;17.32;100.00;100451.22;5011107;28;20073;-60
2023/07/16 04:04:43;;;;;;;7.25;2.85;;;;;;;17.32;100.00;100439.53;5010778;28;20045;-59
2023/07/16 04:07:10;;;;;;;4.18;2.47;;;;;;;17.42;100.00;100450.81;5010774;28;20053;-59
2023/07/16 04:09:40;;;;;;;4.70;2.55;;;;;;;17.45;100.00;100453.09;5010925;28;20556;-59
2023/07/16 04:12:07;;;;;;;3.47;2.90;;;;;;;17.50;100.00;100445.16;5010979;28;20084;-59
2023/07/16 04:14:33;;;;;;;9.35;2.95;;;;;;;17.43;100.00;100427.22;5011021;28;20437;-59
2023/07/16 04:17:00;;;;;;;7.35;2.97;;;;;;;17.24;100.00;100418.91;5011120;28;20499;-59
2023/07/16 04:19:28;;;;;;;4.68;3.28;;;;;;;17.20;100.00;100428.53;5010465;28;20045;-59
2023/07/16 04:21:54;;;;;;;8.10;2.78;;;;;;;17.19;100.00;100440.38;5011640;28;20394;-59
2023/07/16 04:24:21;;;;;;;5.32;2.97;;;;;;;17.32;100.00;100453.91;5010752;28;20473;-59
2023/07/16 04:26:47;;;;;;;9.13;3.05;;;;;;;17.34;100.00;100453.75;5009723;28;20108;-59
2023/07/16 04:29:14;;;;;;;6.22;2.88;;;;;;;17.33;100.00;100468.31;5011024;28;20061;-59
2023/07/16 04:31:40;;;;;;;8.02;3.20;;;;;;;17.33;100.00;100463.72;5010550;28;20058;-59
2023/07/16 04:34:07;;;;;;;4.80;3.60;;;;;;;17.32;100.00;100466.66;5010340;28;20129;-60
2023/07/16 04:36:34;;;;;;;6.80;3.75;;;;;;;17.19;100.00;100463.94;5010363;28;20049;-60
2023/07/16 04:39:01;;;;;;;6.35;3.58;;;;;;;17.12;100.00;100462.06;5010597;28;20054;-59
2023/07/16 04:41:27;;;;;;;7.78;3.38;;;;;;;17.07;100.00;100461.06;5010613;28;20081;-60
2023/07/16 04:43:54;;;;;;;3.70;2.92;;;;;;;17.07;100.00;100464.59;5010718;28;20053;-59
2023/07/16 04:46:20;;;;;;;4.72;3.47;;;;;;;17.09;100.00;100472.50;5010681;28;20096;-59
2023/07/16 04:48:47;;;;;;;6.78;3.30;;;;;;;17.12;100.00;100478.34;5010214;28;20060;-59
2023/07/16 04:51:14;;;;;;;7.80;3.80;;;;;;;17.18;100.00;100492.94;5010316;28;20118;-59
2023/07/16 04:53:40;;;;;;;6.75;3.60;;;;;;;17.21;100.00;100502.53;5009732;28;20076;-59
2023/07/16 04:56:14;;;;;;;6.22;3.58;;;;;;;17.23;100.00;100506.69;5010416;28;20054;-59
2023/07/16 04:58:42;;;;;;;4.57;3.33;;;;;;;17.23;100.00;100490.41;5010122;28;20094;-59
2023/07/16 05:01:09;;;;;;;6.50;3.40;;;;;;;17.31;100.00;100497.53;5010367;28;20049;-59
2023/07/16 05:03:36;;;;;;;8.68;3.40;;;;;;;17.38;100.00;100520.09;5009907;28;20104;-59
2023/07/16 05:06:04;;;;;;;6.00;3.42;;;;;;;17.34;100.00;100535.09;5010135;28;20046;-60
2023/07/16 05:08:30;;;;;;;5.88;3.35;;;;;;;17.38;100.00;100540.94;5009938;28;20046;-59
2023/07/16 05:10:57;;;;;;;5.90;3.78;;;;;;;17.33;100.00;100536.94;5010166;28;20053;-59
2023/07/16 05:13:23;;;;;;;7.78;3.97;;;;;;;17.40;100.00;100545.09;5010556;28;20058;-59
2023/07/16 05:15:50;;;;;;;8.20;4.13;;;;;;;17.41;100.00;100548.66;5010061;28;20104;-59
2023/07/16 05:18:16;;;;;;;8.70;4.28;;;;;;;17.65;100.00;100552.56;5009561;28;20138;-59
2023/07/16 05:20:46;;;;;;;4.00;3.53;;;;;;;17.65;100.00;100536.28;5010005;28;20053;-59
2023/07/16 05:23:13;;;;;;;9.00;3.88;;;;;;;17.64;100.00;100530.03;5009682;28;20494;-60
2023/07/16 05:25:49;;;;;;;9.25;3.88;;;;;;;17.57;100.00;100538.19;5008528;28;20454;-59
2023/07/16 05:28:16;;;;;;;4.45;3.15;;;;;;;17.61;100.00;100541.31;5010126;28;20452;-60
2023/07/16 05:30:43;;;;;;;5.85;3.80;;;;;;;17.75;100.00;100520.41;5014829;28;20119;-60
2023/07/16 05:33:12;;;;;;;5.60;3.63;;;;;;;17.81;100.00;100530.44;5028053;28;20049;-59
2023/07/16 05:35:39;;;;;;;7.15;3.28;;;;;;;17.99;100.00;100548.75;5029428;28;20120;-60
2023/07/16 05:38:07;;;;;;;5.80;3.78;;;;;;;18.20;100.00;100545.81;5029478;28;20054;-61
2023/07/16 05:40:33;;;;;;;4.30;3.22;;;;;;;18.19;100.00;100546.81;5029567;28;20045;-61
2023/07/16 05:43:00;;;;;;;5.50;3.00;;;;;;;18.20;100.00;100551.22;5029453;28;20050;-60
2023/07/16 05:45:26;;;;;;;6.03;3.65;;;;;;;18.19;100.00;100546.00;5024889;28;20485;-60
2023/07/16 05:47:53;;;;;;;8.07;3.85;;;;;;;18.24;100.00;100554.34;5009694;28;20100;-59
2023/07/16 05:50:20;;;;;;;5.68;3.65;;;;;;;18.25;100.00;100558.72;5011379;28;20038;-60
2023/07/16 05:52:48;;;;;;;5.30;3.10;;;;;;;18.20;100.00;100555.81;5008592;28;20102;-60
2023/07/16 05:55:15;;;;;;;10.32;3.20;;;;;;;18.22;100.00;100551.84;5010075;28;20046;-60
2023/07/16 05:57:42;;;;;;;7.45;3.88;;;;;;;18.27;100.00;100553.91;5010823;28;20128;-60
2023/07/16 06:00:10;;;;;;;5.53;3.42;;;;;;;18.32;100.00;100551.38;5011390;28;20046;-60
2023/07/16 06:02:37;;;;;;;4.43;3.13;;;;;;;18.37;100.00;100558.88;5010005;28;20041;-59
2023/07/16 06:05:04;;;;;;;4.63;3.15;;;;;;;18.39;100.00;100559.50;5010484;28;20050;-59
2023/07/16 06:07:32;;;;;;;4.72;3.38;;;;;;;18.38;100.00;100558.66;5009779;28;20056;-59
2023/07/16 06:09:59;;;;;;;5.97;3.45;;;;;;;18.34;100.00;100562.84;5011128;28;20145;-60
2023/07/16 06:12:26;;;;;;;5.72;2.95;;;;;;;18.39;100.00;100556.78;5010854;28;20104;-59
2023/07/16 06:14:53;;;;;;;4.07;2.88;;;;;;;18.63;100.00;100560.63;5012783;28;20050;-60
2023/07/16 06:17:20;;;;;;;5.57;2.92;;;;;;;18.82;100.00;100561.56;5011117;28;20070;-59
2023/07/16 06:19:50;;;;;;;6.03;4.05;;;;;;;18.80;100.00;100572.66;5011524;28;20050;-60
2023/07/16 06:22:17;;;;;;;7.15;2.92;;;;;;;18.90;100.00;100564.88;5010281;28;20046;-60
2023/07/16 06:24:44;;;;;;;9.77;3.53;;;;;;;18.91;100.00;100568.41;5002310;28;20514;-60
2023/07/16 06:27:10;;;;;;;10.57;3.55;;;;;;;19.00;100.00;100567.97;5015171;28;20052;-60
2023/07/16 06:29:37;;;;;;;13.98;3.35;;;;;;;19.10;100.00;100574.78;5009844;28;20041;-60
2023/07/16 06:32:04;;;;;;;8.55;2.72;;;;;;;19.16;100.00;100576.63;5026875;28;20468;-60
2023/07/16 06:34:31;;;;;;;5.65;2.80;;;;;;;19.21;100.00;100576.81;5029745;28;20512;-60
2023/07/16 06:36:57;;;;;;;4.72;3.00;;;;;;;19.26;100.00;100574.25;5029389;28;20049;-60
2023/07/16 06:39:24;;;;;;;6.47;3.45;;;;;;;19.22;100.00;100576.56;5030015;28;20065;-60
2023/07/16 06:41:50;;;;;;;5.43;2.80;;;;;;;19.27;100.00;100582.16;5031471;28;20069;-60
2023/07/16 06:44:17;;;;;;;6.70;2.72;;;;;;;19.48;100.00;100588.28;5033142;28;20493;-60
2023/07/16 06:46:43;;;;;;;4.20;2.60;;;;;;;19.58;100.00;100585.91;5032742;28;20069;-60
2023/07/16 06:49:10;;;;;;;8.38;3.05;;;;;;;19.58;100.00;100591.34;5032369;28;20095;-61
2023/07/16 06:51:36;;;;;;;3.63;2.50;;;;;;;19.73;100.00;100591.88;5032521;28;20053;-60
2023/07/16 06:54:03;;;;;;;4.20;2.90;;;;;;;19.87;100.00;100600.75;5014564;28;20046;-60
2023/07/16 06:56:29;;;;;;;4.93;2.28;;;;;;;20.10;100.00;100601.97;5012676;28;20037;-61
2023/07/16 06:58:56;;;;;;;4.93;2.70;;;;;;;20.35;100.00;100604.59;5012565;28;20045;-60
2023/07/16 07:01:22;;;;;;;5.43;2.67;;;;;;;20.49;100.00;100606.16;5011769;28;20108;-60
2023/07/16 07:03:49;;;;;;;6.50;2.35;;;;;;;20.63;100.00;100606.81;5012967;28;20050;-60
2023/07/16 07:06:16;;;;;;;3.67;2.33;;;;;;;20.67;100.00;100613.47;5012718;28;20054;-60
2023/07/16 07:08:43;;;;;;;4.85;2.50;;;;;;;20.80;100.00;100618.75;5012570;28;20050;-60
2023/07/16 07:11:09;;;;;;;2.60;2.20;;;;;;;20.88;100.00;100621.16;5012773;28;20046;-60
2023/07/16 07:13:36;;;;;;;7.15;2.60;;;;;;;20.85;100.00;100616.16;5012864;28;20096;-61
2023/07/16 07:16:03;;;;;;;5.63;2.70;;;;;;;20.80;100.00;100616.03;5012728;28;20104;-60
2023/07/16 07:18:29;;;;;;;3.58;2.42;;;;;;;20.98;100.00;100617.88;5012536;28;20052;-60
2023/07/16 07:20:56;;;;;;;5.40;3.08;;;;;;;21.04;100.00;100622.41;5011693;28;20064;-61
2023/07/16 07:23:22;;;;;;;3.22;2.40;;;;;;;21.19;100.00;100624.72;5012407;28;20053;-61
2023/07/16 07:25:51;;;;;;;4.15;2.15;;;;;;;21.21;100.00;100627.19;5011180;28;20116;-61
2023/07/16 07:28:19;;;;;;;4.72;2.50;;;;;;;21.37;100.00;100632.81;5011469;28;20042;-60
2023/07/16 07:30:45;;;;;;;5.07;2.20;;;;;;;21.51;100.00;100640.81;5017935;28;20081;-61
2023/07/16 07:33:12;;;;;;;4.07;2.50;;;;;;;21.55;100.00;100631.06;5032227;28;20045;-60
2023/07/16 07:35:39;;;;;;;6.88;2.70;;;;;;;21.87;100.00;100617.94;5032039;28;20176;-60
2023/07/16 07:38:05;;;;;;;4.60;2.60;;;;;;;22.40;100.00;100646.19;5032112;28;20057;-61
2023/07/16 07:40:32;;;;;;;5.35;2.58;;;;;;;22.28;100.00;100640.72;5012257;28;20188;-61
2023/07/16 07:42:59;;;;;;;4.07;2.70;;;;;;;21.88;100.00;100638.75;5011822;28;20472;-59
2023/07/16 07:45:26;;;;;;;7.47;2.30;;;;;;;21.58;100.00;100649.72;5011623;28;20449;-60
2023/07/16 07:47:52;;;;;;;8.10;2.22;;;;;;;21.37;100.00;100649.19;5011583;28;20139;-60
2023/07/16 07:50:19;;;;;;;3.50;2.10;;;;;;;21.24;100.00;100649.41;5010587;28;20046;-60
2023/07/16 07:52:45;;;;;;;3.70;2.40;;;;;;;21.18;100.00;100658.50;5010980;28;20873;-60
2023/07/16 07:55:12;;;;;;;4.05;2.30;;;;;;;21.20;100.00;100647.38;5011953;28;20050;-60
2023/07/16 07:57:38;;;;;;;3.55;2.10;;;;;;;21.40;100.00;100647.91;5011838;28;20144;-60
2023/07/16 08:00:06;;;;;;;3.03;1.95;;;;;;;21.53;100.00;100652.34;5011939;28;20046;-60
2023/07/16 08:02:32;;;;;;;7.80;2.88;;;;;;;21.96;100.00;100656.66;5011967;28;20044;-61
2023/07/16 08:04:59;;;;;;;4.10;2.20;;;;;;;22.68;100.00;100659.91;5011745;28;20050;-61
2023/07/16 08:07:30;;;;;;;3.90;1.88;;;;;;;22.63;100.00;100661.69;5011577;28;20050;-60
2023/07/16 08:09:57;;;;;;;3.72;2.15;;;;;;;22.19;100.00;100672.22;5010812;28;20057;-61
2023/07/16 08:12:23;;;;;;;2.50;1.80;;;;;;;21.89;100.00;100675.91;5011225;28;20046;-61
2023/07/16 08:14:50;;;;;;;3.40;1.73;;;;;;;21.70;100.00;100682.47;5011324;28;20109;-61
2023/07/16 08:17:16;;;;;;;8.88;2.15;;;;;;;21.62;100.00;100679.03;5010714;28;20493;-60
2023/07/16 08:19:43;;;;;;;4.43;1.70;;;;;;;21.57;100.00;100669.91;5011222;28;20494;-60
2023/07/16 08:22:09;;;;;;;4.40;1.90;;;;;;;22.04;100.00;100675.41;5011551;28;20474;-61
2023/07/16 08:24:36;;;;;;;5.28;1.90;;;;;;;22.52;100.00;100677.91;5011129;28;20458;-61
2023/07/16 08:27:03;;;;;;;4.03;1.88;;;;;;;23.26;100.00;100678.03;5010965;28;20474;-61
2023/07/16 08:29:29;;;;;;;3.38;1.98;;;;;;;23.54;100.00;100678.22;5010902;28;20104;-61
2023/07/16 08:31:56;;;;;;;6.97;1.98;;;;;;;23.85;100.00;100682.31;5026541;28;20061;-60
2023/07/16 08:35:06;;;;;;;5.38;2.13;;;;;;;24.26;100.00;100681.03;5031231;28;20056;-60
2023/07/16 08:37:32;;;;;;;4.55;1.70;;;;;;;24.72;95.16;100687.16;4989492;28;20042;-61
2023/07/16 08:39:59;;;;;;;4.53;1.80;;;;;;;24.91;88.96;100693.13;4990554;28;20046;-61
2023/07/16 08:42:25;;;;;;;6.03;2.00;;;;;;;25.29;81.53;100691.38;4999712;28;20046;-60
2023/07/16 08:44:53;;;;;;;3.00;1.65;;;;;;;25.62;78.95;100693.13;5010041;28;20050;-60
2023/07/16 08:47:19;;;;;;;4.15;2.00;;;;;;;25.43;76.45;100689.06;5008338;28;20544;-60
2023/07/16 08:49:58;;;;;;;3.40;1.80;;;;;;;25.55;72.35;100685.06;5009236;28;20046;-61
2023/07/16 08:52:27;;;;;;;4.15;1.70;;;;;;;25.45;72.29;100681.41;5008845;28;20092;-61
2023/07/16 08:54:54;;;;;;;2.78;1.77;;;;;;;25.77;69.45;100693.22;5009783;28;20057;-60
2023/07/16 08:57:21;;;;;;;5.80;1.88;;;;;;;25.99;66.93;100698.59;5009422;28;20042;-61
2023/07/16 08:59:49;;;;;;;6.82;3.10;;;;;;;25.13;71.48;100702.22;5009547;28;20046;-61
2023/07/16 09:02:19;;;;;;;3.13;1.48;;;;;;;25.36;70.09;100697.50;5009599;28;20050;-61
2023/07/16 09:04:52;;;;;;;3.43;1.83;;;;;;;25.64;67.38;100695.59;5010700;28;20061;-61
2023/07/16 09:07:19;;;;;;;3.60;1.73;;;;;;;25.77;65.93;100709.72;5009945;28;20069;-61
2023/07/16 09:09:59;;;;;;;8.98;2.00;;;;;;;25.90;63.27;100700.22;5010000;28;20152;-61
2023/07/16 09:12:27;;;;;;;4.10;2.00;;;;;;;26.02;62.30;100705.50;5008905;28;20041;-60
2023/07/16 09:14:54;;;;;;;3.70;1.90;;;;;;;26.23;61.30;100703.75;5009329;28;20445;-60
2023/07/16 09:17:23;;;;;;;6.82;2.08;;;;;;;26.40;60.24;100698.91;5009338;28;20485;-61
2023/07/16 09:19:52;;;;;;;4.68;1.90;;;;;;;26.89;56.90;100706.03;5008154;28;20100;-61
2023/07/16 09:22:20;;;;;;;6.20;1.90;;;;;;;27.05;55.42;100704.16;5009609;28;20084;-60
2023/07/16 09:24:47;;;;;;;6.70;1.77;;;;;;;27.11;53.10;100708.59;5008111;28;20136;-60
2023/07/16 09:27:14;;;;;;;4.38;1.73;;;;;;;26.78;53.90;100706.00;5009163;28;20469;-60
2023/07/16 09:29:40;;;;;;;3.42;1.70;;;;;;;26.95;52.66;100705.78;5008844;28;20449;-60
2023/07/16 09:32:07;;;;;;;4.53;1.70;;;;;;;27.00;51.90;100704.94;5026449;28;20099;-60
2023/07/16 09:34:34;;;;;;;4.78;1.90;;;;;;;27.34;50.49;100702.59;5028168;28;20053;-60
2023/07/16 09:37:01;;;;;;;4.18;1.70;;;;;;;27.09;50.84;100702.53;5029382;28;20485;-60
2023/07/16 09:39:28;;;;;;;4.65;1.80;;;;;;;26.13;53.44;100709.16;5028772;28;20041;-61
2023/07/16 09:41:57;;;;;;;4.57;1.65;;;;;;;26.33;53.28;100710.13;5028784;28;20050;-61
2023/07/16 09:44:24;;;;;;;3.72;1.63;;;;;;;26.88;51.90;100699.69;5028704;28;20095;-61
2023/07/16 09:46:51;;;;;;;5.47;2.00;;;;;;;27.14;50.44;100713.53;5027851;28;20049;-61
2023/07/16 09:49:17;;;;;;;5.32;1.88;;;;;;;26.52;51.56;100702.28;5028026;28;20053;-61
2023/07/16 09:51:45;;;;;;;3.28;1.58;;;;;;;25.95;53.40;100707.66;5027258;28;20525;-61
2023/07/16 09:54:14;;;;;;;3.50;1.77;;;;;;;26.58;53.07;100718.81;5027998;28;20052;-61
2023/07/16 09:56:49;;;;;;;3.53;1.65;;;;;;;27.26;51.30;100705.88;5028155;28;20041;-61
2023/07/16 09:59:17;;;;;;;2.90;1.52;;;;;;;28.09;49.23;100715.88;5029023;28;20041;-60
2023/07/16 10:01:44;;;;;;;6.25;1.80;;;;;;;28.27;48.93;100723.56;5028208;28;20042;-61
2023/07/16 10:07:59;;;;;;;3.42;1.50;;;;;;;29.58;43.44;100725.25;5027147;28;20116;-61
2023/07/16 10:10:40;;;;;;;3.80;1.65;;;;;;;30.62;40.79;100707.41;5028372;28;20544;-61
2023/07/16 10:13:07;;;;;;;;;;;;;;;30.13;42.39;100711.25;5029367;28;20124;-61
2023/07/16 10:15:34;;;;;;;4.93;1.50;;;;;;;30.30;41.71;100711.63;5028220;28;19921;-61
2023/07/16 10:18:01;;;;;;;4.43;1.80;;;;;;;30.60;41.04;100713.22;5031784;28;20061;-61
2023/07/16 10:20:42;;;;;;;6.40;3.28;;;;;;;29.43;41.85;100717.00;5031469;28;20057;-61
2023/07/16 10:23:16;;;;;;;3.63;1.85;;;;;;;28.64;43.94;100717.69;5032603;28;20045;-61
2023/07/16 10:26:00;;;;;;;7.57;2.00;;;;;;;29.41;42.88;100711.78;5032298;28;20064;-61
2023/07/16 10:28:27;;;;;;;4.63;2.03;;;;;;;27.86;45.73;100715.28;5032269;28;20470;-61
2023/07/16 10:30:53;;;;;;;4.10;2.00;;;;;;;27.10;48.11;100718.75;5024160;28;20090;-61
2023/07/16 10:33:20;;;;;;;4.70;1.83;;;;;;;26.16;51.77;100723.19;5011969;28;20461;-61
2023/07/16 10:35:46;;;;;;;4.72;2.10;;;;;;;25.55;53.99;100726.25;5011954;28;20608;-61
2023/07/16 10:38:13;;;;;;;7.75;1.88;;;;;;;25.09;56.39;100717.53;5012630;28;20100;-61
2023/07/16 10:40:45;;;;;;;6.28;1.80;;;;;;;24.93;57.67;100723.91;5012347;28;20046;-61
2023/07/16 10:43:12;;;;;;;5.93;1.98;;;;;;;24.51;60.06;100727.22;5011922;28;20049;-60
2023/07/16 10:45:39;;;;;;;5.88;1.98;;;;;;;24.01;63.88;100733.56;5012992;28;20489;-61
2023/07/16 10:48:06;;;;;;;4.63;1.80;;;;;;;23.58;67.94;100735.00;5011242;28;20492;-61
2023/07/16 10:50:34;;;;;;;3.30;1.98;;;;;;;23.36;72.02;100736.78;5011522;28;20417;-60
2023/07/16 10:53:01;;;;;;;3.90;1.75;;;;;;;23.33;73.64;100732.63;5010995;28;20089;-61
2023/07/16 10:55:29;;;;;;;4.60;2.17;;;;;;;23.80;72.11;100728.81;5011289;28;20490;-61
2023/07/16 10:57:56;;;;;;;3.83;1.75;;;;;;;24.76;65.37;100726.72;5012544;28;20139;-60
2023/07/16 11:00:23;;;;;;;8.18;2.08;;;;;;;24.68;65.87;100732.63;5012682;28;20417;-61
2023/07/16 11:02:51;;;;;;;7.57;1.83;;;;;;;26.33;56.92;100731.31;5012571;28;20050;-61
2023/07/16 11:05:19;;;;;;;6.38;2.30;;;;;;;27.03;52.22;100724.50;5012535;28;20390;-61
2023/07/16 11:07:47;;;;;;;7.65;1.90;;;;;;;27.07;50.75;100726.72;5012582;28;20493;-61
2023/07/16 11:10:20;;;;;;;5.53;1.90;;;;;;;27.22;51.08;100724.84;5012616;28;20466;-61
2023/07/16 11:12:54;;;;;;;7.82;2.30;;;;;;;27.41;51.25;100722.44;5012521;28;20629;-61
2023/07/16 11:15:34;;;;;;;3.90;2.22;;;;;;;27.52;50.76;100720.50;5012553;28;20421;-61
2023/07/16 11:18:02;;;;;;;6.63;2.20;;;;;;;26.22;53.38;100727.69;5012053;28;20053;-61
2023/07/16 11:20:29;;;;;;;5.70;2.40;;;;;;;25.70;55.21;100730.25;5010589;28;20045;-61
2023/07/16 11:22:59;;;;;;;3.83;2.20;;;;;;;25.39;58.50;100727.19;5011246;28;20054;-61
2023/07/16 11:25:26;;;;;;;10.07;2.17;;;;;;;25.40;58.53;100728.84;5011035;28;20181;-62
2023/07/16 11:27:56;;;;;;;4.43;2.15;;;;;;;25.45;58.70;100731.66;5010219;28;20297;-61
2023/07/16 11:30:24;;;;;;;5.15;2.67;;;;;;;25.34;58.07;100735.41;5014560;28;20508;-61